sensor_id;sensor_type;location;lat;lon;timestamp;temperature;humidity
30250;DHT22;17064;47.974;13.826;2023-09-30T00:03:26;18.80;99.90
30250;DHT22;17064;47.974;13.826;2023-09-30T00:08:26;18.70;99.90
30250;DHT22;17064;47.974;13.826;2023-09-30T00:13:27;18.70;99.90
30250;DHT22;17064;47.974;13.826;2023-09-30T00:18:28;18.70;99.90
30250;DHT22;17064;47.974;13.826;2023-09-30T00:23:30;18.70;99.90
30250;DHT22;17064;47.974;13.826;2023-09-30T00:28:30;18.60;99.90
30250;DHT22;17064;47.974;13.826;2023-09-30T00:33:31;18.60;99.90
30250;DHT22;17064;47.974;13.826;2023-09-30T00:38:32;18.50;99.90
30250;DHT22;17064;47.974;13.826;2023-09-30T00:43:33;18.50;99.90
30250;DHT22;17064;47.974;13.826;2023-09-30T00:48:34;18.60;99.90
30250;DHT22;17064;47.974;13.826;2023-09-30T00:53:35;18.50;99.90
30250;DHT22;17064;47.974;13.826;2023-09-30T00:58:38;18.40;99.90
30250;DHT22;17064;47.974;13.826;2023-09-30T01:03:38;18.40;99.90
30250;DHT22;17064;47.974;13.826;2023-09-30T01:08:40;18.30;99.90
30250;DHT22;17064;47.974;13.826;2023-09-30T01:13:42;18.30;99.90
30250;DHT22;17064;47.974;13.826;2023-09-30T01:18:45;18.30;99.90
30250;DHT22;17064;47.974;13.826;2023-09-30T01:23:45;18.30;99.90
30250;DHT22;17064;47.974;13.826;2023-09-30T01:28:48;18.20;99.90
30250;DHT22;17064;47.974;13.826;2023-09-30T01:33:49;18.20;99.90
30250;DHT22;17064;47.974;13.826;2023-09-30T01:38:49;18.10;99.90
30250;DHT22;17064;47.974;13.826;2023-09-30T01:43:50;18.10;99.90
30250;DHT22;17064;47.974;13.826;2023-09-30T01:48:51;18.10;99.90
30250;DHT22;17064;47.974;13.826;2023-09-30T01:53:52;18.00;99.90
30250;DHT22;17064;47.974;13.826;2023-09-30T01:58:52;17.90;99.90
30250;DHT22;17064;47.974;13.826;2023-09-30T02:03:53;17.80;99.90
30250;DHT22;17064;47.974;13.826;2023-09-30T02:08:54;17.80;99.90
30250;DHT22;17064;47.974;13.826;2023-09-30T02:13:55;17.70;99.90
30250;DHT22;17064;47.974;13.826;2023-09-30T02:18:55;17.70;99.90
30250;DHT22;17064;47.974;13.826;2023-09-30T02:23:56;17.60;99.90
30250;DHT22;17064;47.974;13.826;2023-09-30T02:28:57;17.60;99.90
30250;DHT22;17064;47.974;13.826;2023-09-30T02:33:58;17.60;99.90
30250;DHT22;17064;47.974;13.826;2023-09-30T02:38:58;17.50;99.90
30250;DHT22;17064;47.974;13.826;2023-09-30T02:44:01;17.50;99.90
30250;DHT22;17064;47.974;13.826;2023-09-30T02:49:02;17.50;99.90
30250;DHT22;17064;47.974;13.826;2023-09-30T02:54:03;17.40;99.90
30250;DHT22;17064;47.974;13.826;2023-09-30T02:59:05;17.40;99.90
30250;DHT22;17064;47.974;13.826;2023-09-30T03:04:07;17.40;99.90
30250;DHT22;17064;47.974;13.826;2023-09-30T03:09:10;17.30;99.90
30250;DHT22;17064;47.974;13.826;2023-09-30T03:14:14;17.30;99.90
30250;DHT22;17064;47.974;13.826;2023-09-30T03:19:15;17.20;99.90
30250;DHT22;17064;47.974;13.826;2023-09-30T03:24:16;17.10;99.90
30250;DHT22;17064;47.974;13.826;2023-09-30T03:29:17;17.00;99.90
30250;DHT22;17064;47.974;13.826;2023-09-30T03:34:18;16.90;99.90
30250;DHT22;17064;47.974;13.826;2023-09-30T03:39:20;16.70;99.90
30250;DHT22;17064;47.974;13.826;2023-09-30T03:44:27;16.60;99.90
30250;DHT22;17064;47.974;13.826;2023-09-30T03:49:28;16.50;99.90
30250;DHT22;17064;47.974;13.826;2023-09-30T03:54:29;16.40;99.90
30250;DHT22;17064;47.974;13.826;2023-09-30T03:59:30;16.40;99.90
30250;DHT22;17064;47.974;13.826;2023-09-30T04:04:31;16.40;99.90
30250;DHT22;17064;47.974;13.826;2023-09-30T04:09:32;16.50;99.90
30250;DHT22;17064;47.974;13.826;2023-09-30T04:14:33;16.50;99.90
30250;DHT22;17064;47.974;13.826;2023-09-30T04:19:33;16.60;99.90
30250;DHT22;17064;47.974;13.826;2023-09-30T04:24:34;16.60;99.90
30250;DHT22;17064;47.974;13.826;2023-09-30T04:29:35;16.50;99.90
30250;DHT22;17064;47.974;13.826;2023-09-30T04:34:35;16.50;99.90
30250;DHT22;17064;47.974;13.826;2023-09-30T04:39:36;16.50;99.90
30250;DHT22;17064;47.974;13.826;2023-09-30T04:44:38;16.50;99.90
30250;DHT22;17064;47.974;13.826;2023-09-30T04:49:38;16.40;99.90
30250;DHT22;17064;47.974;13.826;2023-09-30T04:54:39;16.40;99.90
30250;DHT22;17064;47.974;13.826;2023-09-30T04:59:40;16.50;99.90
30250;DHT22;17064;47.974;13.826;2023-09-30T05:04:44;16.50;99.90
30250;DHT22;17064;47.974;13.826;2023-09-30T05:09:45;16.50;99.90
30250;DHT22;17064;47.974;13.826;2023-09-30T05:14:45;16.40;99.90
30250;DHT22;17064;47.974;13.826;2023-09-30T05:19:46;16.40;99.90
30250;DHT22;17064;47.974;13.826;2023-09-30T05:24:47;16.40;99.90
30250;DHT22;17064;47.974;13.826;2023-09-30T05:29:48;16.40;99.90
30250;DHT22;17064;47.974;13.826;2023-09-30T05:34:49;16.40;99.90
30250;DHT22;17064;47.974;13.826;2023-09-30T05:39:50;16.40;99.90
30250;DHT22;17064;47.974;13.826;2023-09-30T05:44:51;16.40;99.90
30250;DHT22;17064;47.974;13.826;2023-09-30T05:49:53;16.40;99.90
30250;DHT22;17064;47.974;13.826;2023-09-30T05:54:54;16.40;99.90
30250;DHT22;17064;47.974;13.826;2023-09-30T05:59:55;16.40;99.90
30250;DHT22;17064;47.974;13.826;2023-09-30T06:04:55;16.40;99.90
30250;DHT22;17064;47.974;13.826;2023-09-30T06:09:57;16.40;99.90
30250;DHT22;17064;47.974;13.826;2023-09-30T06:14:58;16.40;99.90
30250;DHT22;17064;47.974;13.826;2023-09-30T06:19:59;16.30;99.90
30250;DHT22;17064;47.974;13.826;2023-09-30T06:25:08;16.40;99.90
30250;DHT22;17064;47.974;13.826;2023-09-30T06:30:09;16.40;99.90
30250;DHT22;17064;47.974;13.826;2023-09-30T06:35:11;16.50;99.90
30250;DHT22;17064;47.974;13.826;2023-09-30T06:40:11;16.60;99.90
30250;DHT22;17064;47.974;13.826;2023-09-30T06:45:13;16.70;99.90
30250;DHT22;17064;47.974;13.826;2023-09-30T06:50:14;16.70;99.90
30250;DHT22;17064;47.974;13.826;2023-09-30T06:55:17;16.90;99.90
30250;DHT22;17064;47.974;13.826;2023-09-30T07:00:18;17.10;99.90
30250;DHT22;17064;47.974;13.826;2023-09-30T07:05:19;17.30;99.90
30250;DHT22;17064;47.974;13.826;2023-09-30T07:10:20;17.50;99.90
30250;DHT22;17064;47.974;13.826;2023-09-30T07:15:21;17.60;99.90
30250;DHT22;17064;47.974;13.826;2023-09-30T07:20:22;17.80;99.90
30250;DHT22;17064;47.974;13.826;2023-09-30T07:25:23;17.90;99.90
30250;DHT22;17064;47.974;13.826;2023-09-30T07:30:24;17.90;99.90
30250;DHT22;17064;47.974;13.826;2023-09-30T07:35:25;18.00;99.90
30250;DHT22;17064;47.974;13.826;2023-09-30T07:40:25;18.00;99.90
30250;DHT22;17064;47.974;13.826;2023-09-30T07:45:26;18.00;99.90
30250;DHT22;17064;47.974;13.826;2023-09-30T07:50:28;18.20;99.90
30250;DHT22;17064;47.974;13.826;2023-09-30T07:55:29;18.50;99.90
30250;DHT22;17064;47.974;13.826;2023-09-30T08:00:29;18.80;99.90
30250;DHT22;17064;47.974;13.826;2023-09-30T08:05:30;18.80;99.90
30250;DHT22;17064;47.974;13.826;2023-09-30T08:10:31;18.80;99.90
30250;DHT22;17064;47.974;13.826;2023-09-30T08:15:32;18.70;99.90
30250;DHT22;17064;47.974;13.826;2023-09-30T08:20:33;18.60;99.90
30250;DHT22;17064;47.974;13.826;2023-09-30T08:25:34;18.60;99.90
30250;DHT22;17064;47.974;13.826;2023-09-30T08:30:38;18.70;99.90
30250;DHT22;17064;47.974;13.826;2023-09-30T08:35:39;18.80;99.90
30250;DHT22;17064;47.974;13.826;2023-09-30T08:40:39;19.10;99.90
30250;DHT22;17064;47.974;13.826;2023-09-30T08:45:43;19.40;99.90
30250;DHT22;17064;47.974;13.826;2023-09-30T08:50:45;19.50;99.90
30250;DHT22;17064;47.974;13.826;2023-09-30T08:55:47;19.50;99.90
30250;DHT22;17064;47.974;13.826;2023-09-30T09:00:49;19.80;99.90
30250;DHT22;17064;47.974;13.826;2023-09-30T09:05:57;20.10;99.90
30250;DHT22;17064;47.974;13.826;2023-09-30T09:10:59;20.20;99.90
30250;DHT22;17064;47.974;13.826;2023-09-30T09:16:09;19.90;99.90
30250;DHT22;17064;47.974;13.826;2023-09-30T09:21:23;20.00;99.90
30250;DHT22;17064;47.974;13.826;2023-09-30T09:26:31;20.20;99.90
30250;DHT22;17064;47.974;13.826;2023-09-30T09:31:38;20.40;99.90
30250;DHT22;17064;47.974;13.826;2023-09-30T09:36:41;20.40;99.90
30250;DHT22;17064;47.974;13.826;2023-09-30T09:41:55;20.50;99.90
30250;DHT22;17064;47.974;13.826;2023-09-30T09:46:58;20.40;99.90
30250;DHT22;17064;47.974;13.826;2023-09-30T09:52:02;20.20;99.90
30250;DHT22;17064;47.974;13.826;2023-09-30T09:57:04;20.20;99.90
30250;DHT22;17064;47.974;13.826;2023-09-30T10:02:12;20.20;99.90
30250;DHT22;17064;47.974;13.826;2023-09-30T10:07:25;20.20;99.90
30250;DHT22;17064;47.974;13.826;2023-09-30T10:12:27;20.20;99.90
30250;DHT22;17064;47.974;13.826;2023-09-30T10:18:03;20.30;99.90
30250;DHT22;17064;47.974;13.826;2023-09-30T10:28:47;20.50;99.90
30250;DHT22;17064;47.974;13.826;2023-09-30T10:39:02;20.60;99.90
30250;DHT22;17064;47.974;13.826;2023-09-30T10:54:24;21.00;99.90
30250;DHT22;17064;47.974;13.826;2023-09-30T10:59:28;20.80;99.90
30250;DHT22;17064;47.974;13.826;2023-09-30T11:04:30;20.70;99.90
30250;DHT22;17064;47.974;13.826;2023-09-30T11:09:45;20.80;99.90
30250;DHT22;17064;47.974;13.826;2023-09-30T11:14:46;21.10;99.90
30250;DHT22;17064;47.974;13.826;2023-09-30T11:19:47;21.40;99.90
30250;DHT22;17064;47.974;13.826;2023-09-30T11:24:48;21.70;99.90
30250;DHT22;17064;47.974;13.826;2023-09-30T11:29:51;21.90;99.90
30250;DHT22;17064;47.974;13.826;2023-09-30T11:34:52;22.00;99.90
30250;DHT22;17064;47.974;13.826;2023-09-30T11:39:53;21.90;99.90
30250;DHT22;17064;47.974;13.826;2023-09-30T11:44:54;21.80;99.90
30250;DHT22;17064;47.974;13.826;2023-09-30T11:49:55;21.80;99.90
30250;DHT22;17064;47.974;13.826;2023-09-30T11:54:56;21.70;99.90
30250;DHT22;17064;47.974;13.826;2023-09-30T11:59:57;21.30;99.90
30250;DHT22;17064;47.974;13.826;2023-09-30T12:04:58;21.20;99.90
30250;DHT22;17064;47.974;13.826;2023-09-30T12:09:59;21.00;99.90
30250;DHT22;17064;47.974;13.826;2023-09-30T12:14:59;20.90;99.90
30250;DHT22;17064;47.974;13.826;2023-09-30T12:20:00;20.90;99.90
30250;DHT22;17064;47.974;13.826;2023-09-30T12:25:01;20.90;99.90
30250;DHT22;17064;47.974;13.826;2023-09-30T12:30:01;21.10;99.90
30250;DHT22;17064;47.974;13.826;2023-09-30T12:35:05;21.60;99.90
30250;DHT22;17064;47.974;13.826;2023-09-30T12:40:09;21.90;99.90
30250;DHT22;17064;47.974;13.826;2023-09-30T12:45:11;21.90;99.90
30250;DHT22;17064;47.974;13.826;2023-09-30T12:50:17;21.60;99.90
30250;DHT22;17064;47.974;13.826;2023-09-30T12:55:17;21.50;99.90
30250;DHT22;17064;47.974;13.826;2023-09-30T13:00:19;21.30;99.90
30250;DHT22;17064;47.974;13.826;2023-09-30T13:05:19;21.10;99.90
30250;DHT22;17064;47.974;13.826;2023-09-30T13:10:20;21.00;99.90
30250;DHT22;17064;47.974;13.826;2023-09-30T13:15:21;21.00;99.90
30250;DHT22;17064;47.974;13.826;2023-09-30T13:20:23;21.10;99.90
30250;DHT22;17064;47.974;13.826;2023-09-30T13:25:24;21.10;99.90
30250;DHT22;17064;47.974;13.826;2023-09-30T13:30:25;21.30;99.90
30250;DHT22;17064;47.974;13.826;2023-09-30T13:35:26;21.40;99.90
30250;DHT22;17064;47.974;13.826;2023-09-30T13:40:26;21.80;99.90
30250;DHT22;17064;47.974;13.826;2023-09-30T13:45:27;21.70;99.90
30250;DHT22;17064;47.974;13.826;2023-09-30T13:50:28;21.50;99.90
30250;DHT22;17064;47.974;13.826;2023-09-30T13:55:29;21.20;99.90
30250;DHT22;17064;47.974;13.826;2023-09-30T14:00:30;21.00;99.90
30250;DHT22;17064;47.974;13.826;2023-09-30T14:05:31;20.90;99.90
30250;DHT22;17064;47.974;13.826;2023-09-30T14:10:32;20.60;99.90
30250;DHT22;17064;47.974;13.826;2023-09-30T14:15:34;20.50;99.90
30250;DHT22;17064;47.974;13.826;2023-09-30T14:20:35;20.40;99.90
30250;DHT22;17064;47.974;13.826;2023-09-30T14:25:36;20.20;99.90
30250;DHT22;17064;47.974;13.826;2023-09-30T14:30:39;20.10;99.90
30250;DHT22;17064;47.974;13.826;2023-09-30T14:35:41;20.10;99.90
30250;DHT22;17064;47.974;13.826;2023-09-30T14:40:44;20.20;99.90
30250;DHT22;17064;47.974;13.826;2023-09-30T14:45:45;20.30;99.90
30250;DHT22;17064;47.974;13.826;2023-09-30T14:50:52;20.30;99.90
30250;DHT22;17064;47.974;13.826;2023-09-30T14:55:53;20.30;99.90
30250;DHT22;17064;47.974;13.826;2023-09-30T15:00:53;20.20;99.90
30250;DHT22;17064;47.974;13.826;2023-09-30T15:09:19;20.30;99.90
30250;DHT22;17064;47.974;13.826;2023-09-30T15:14:20;20.10;99.90
30250;DHT22;17064;47.974;13.826;2023-09-30T15:19:22;20.00;99.90
30250;DHT22;17064;47.974;13.826;2023-09-30T15:24:22;19.80;99.90
30250;DHT22;17064;47.974;13.826;2023-09-30T15:29:23;19.80;99.90
30250;DHT22;17064;47.974;13.826;2023-09-30T15:34:26;19.70;99.90
30250;DHT22;17064;47.974;13.826;2023-09-30T15:39:27;19.60;99.90
30250;DHT22;17064;47.974;13.826;2023-09-30T15:44:28;19.50;99.90
30250;DHT22;17064;47.974;13.826;2023-09-30T15:49:29;19.40;99.90
30250;DHT22;17064;47.974;13.826;2023-09-30T15:54:29;19.30;99.90
30250;DHT22;17064;47.974;13.826;2023-09-30T15:59:30;19.20;99.90
30250;DHT22;17064;47.974;13.826;2023-09-30T16:04:31;19.00;99.90
30250;DHT22;17064;47.974;13.826;2023-09-30T16:09:32;18.90;99.90
30250;DHT22;17064;47.974;13.826;2023-09-30T16:14:33;18.70;99.90
30250;DHT22;17064;47.974;13.826;2023-09-30T16:19:34;18.60;99.90
30250;DHT22;17064;47.974;13.826;2023-09-30T16:24:35;18.40;99.90
30250;DHT22;17064;47.974;13.826;2023-09-30T16:29:36;18.30;99.90
30250;DHT22;17064;47.974;13.826;2023-09-30T16:34:38;18.20;99.90
30250;DHT22;17064;47.974;13.826;2023-09-30T16:39:39;18.10;99.90
30250;DHT22;17064;47.974;13.826;2023-09-30T16:44:40;17.90;99.90
30250;DHT22;17064;47.974;13.826;2023-09-30T16:49:41;17.80;99.90
30250;DHT22;17064;47.974;13.826;2023-09-30T16:54:43;17.70;99.90
30250;DHT22;17064;47.974;13.826;2023-09-30T16:59:46;17.60;99.90
30250;DHT22;17064;47.974;13.826;2023-09-30T17:04:48;17.50;99.90
30250;DHT22;17064;47.974;13.826;2023-09-30T17:09:48;17.50;99.90
30250;DHT22;17064;47.974;13.826;2023-09-30T17:14:49;17.40;99.90
30250;DHT22;17064;47.974;13.826;2023-09-30T17:19:50;17.30;99.90
30250;DHT22;17064;47.974;13.826;2023-09-30T17:24:52;17.20;99.90
30250;DHT22;17064;47.974;13.826;2023-09-30T17:29:53;17.10;99.90
30250;DHT22;17064;47.974;13.826;2023-09-30T17:34:54;17.00;99.90
30250;DHT22;17064;47.974;13.826;2023-09-30T17:39:54;16.90;99.90
30250;DHT22;17064;47.974;13.826;2023-09-30T17:44:55;16.80;99.90
30250;DHT22;17064;47.974;13.826;2023-09-30T17:49:56;16.70;99.90
30250;DHT22;17064;47.974;13.826;2023-09-30T17:54:57;16.70;99.90
30250;DHT22;17064;47.974;13.826;2023-09-30T17:59:59;16.60;99.90
30250;DHT22;17064;47.974;13.826;2023-09-30T18:05:00;16.50;99.90
30250;DHT22;17064;47.974;13.826;2023-09-30T18:10:01;16.50;99.90
30250;DHT22;17064;47.974;13.826;2023-09-30T18:15:03;16.40;99.90
30250;DHT22;17064;47.974;13.826;2023-09-30T18:20:05;16.30;99.90
30250;DHT22;17064;47.974;13.826;2023-09-30T18:25:10;16.20;99.90
30250;DHT22;17064;47.974;13.826;2023-09-30T18:30:11;16.20;99.90
30250;DHT22;17064;47.974;13.826;2023-09-30T18:35:12;16.10;99.90
30250;DHT22;17064;47.974;13.826;2023-09-30T18:40:14;16.00;99.90
30250;DHT22;17064;47.974;13.826;2023-09-30T18:45:15;15.90;99.90
30250;DHT22;17064;47.974;13.826;2023-09-30T18:50:16;15.80;99.90
30250;DHT22;17064;47.974;13.826;2023-09-30T18:55:18;15.70;99.90
30250;DHT22;17064;47.974;13.826;2023-09-30T19:00:18;15.60;99.90
30250;DHT22;17064;47.974;13.826;2023-09-30T19:05:20;15.50;99.90
30250;DHT22;17064;47.974;13.826;2023-09-30T19:10:23;15.30;99.90
30250;DHT22;17064;47.974;13.826;2023-09-30T19:15:27;15.10;99.90
30250;DHT22;17064;47.974;13.826;2023-09-30T19:20:28;14.90;99.90
30250;DHT22;17064;47.974;13.826;2023-09-30T19:25:29;14.70;99.90
30250;DHT22;17064;47.974;13.826;2023-09-30T19:30:30;14.60;99.90
30250;DHT22;17064;47.974;13.826;2023-09-30T19:35:31;14.50;99.90
30250;DHT22;17064;47.974;13.826;2023-09-30T19:40:32;14.40;99.90
30250;DHT22;17064;47.974;13.826;2023-09-30T19:45:33;14.40;99.90
30250;DHT22;17064;47.974;13.826;2023-09-30T19:50:34;14.30;99.90
30250;DHT22;17064;47.974;13.826;2023-09-30T19:55:35;14.30;99.90
30250;DHT22;17064;47.974;13.826;2023-09-30T20:00:40;14.30;99.90
30250;DHT22;17064;47.974;13.826;2023-09-30T20:05:41;14.20;99.90
30250;DHT22;17064;47.974;13.826;2023-09-30T20:10:41;14.20;99.90
30250;DHT22;17064;47.974;13.826;2023-09-30T20:15:42;14.10;99.90
30250;DHT22;17064;47.974;13.826;2023-09-30T20:20:43;14.00;99.90
30250;DHT22;17064;47.974;13.826;2023-09-30T20:25:44;13.90;99.90
30250;DHT22;17064;47.974;13.826;2023-09-30T20:30:45;13.80;99.90
30250;DHT22;17064;47.974;13.826;2023-09-30T20:35:46;13.80;99.90
30250;DHT22;17064;47.974;13.826;2023-09-30T20:40:48;13.70;99.90
30250;DHT22;17064;47.974;13.826;2023-09-30T20:45:48;13.80;99.90
30250;DHT22;17064;47.974;13.826;2023-09-30T20:50:49;13.70;99.90
30250;DHT22;17064;47.974;13.826;2023-09-30T20:55:50;13.70;99.90
30250;DHT22;17064;47.974;13.826;2023-09-30T21:00:51;13.70;99.90
30250;DHT22;17064;47.974;13.826;2023-09-30T21:05:54;13.70;99.90
30250;DHT22;17064;47.974;13.826;2023-09-30T21:10:55;13.70;99.90
30250;DHT22;17064;47.974;13.826;2023-09-30T21:15:56;13.70;99.90
30250;DHT22;17064;47.974;13.826;2023-09-30T21:20:56;13.80;99.90
30250;DHT22;17064;47.974;13.826;2023-09-30T21:25:58;13.80;99.90
30250;DHT22;17064;47.974;13.826;2023-09-30T21:30:59;13.80;99.90
30250;DHT22;17064;47.974;13.826;2023-09-30T21:36:01;13.80;99.90
30250;DHT22;17064;47.974;13.826;2023-09-30T21:41:03;13.80;99.90
30250;DHT22;17064;47.974;13.826;2023-09-30T21:46:03;13.80;99.90
30250;DHT22;17064;47.974;13.826;2023-09-30T21:51:06;13.70;99.90
30250;DHT22;17064;47.974;13.826;2023-09-30T21:56:07;13.70;99.90
30250;DHT22;17064;47.974;13.826;2023-09-30T22:01:08;13.70;99.90
30250;DHT22;17064;47.974;13.826;2023-09-30T22:06:10;13.60;99.90
30250;DHT22;17064;47.974;13.826;2023-09-30T22:11:10;13.60;99.90
30250;DHT22;17064;47.974;13.826;2023-09-30T22:16:11;13.50;99.90
30250;DHT22;17064;47.974;13.826;2023-09-30T22:21:12;13.40;99.90
30250;DHT22;17064;47.974;13.826;2023-09-30T22:26:13;13.40;99.90
30250;DHT22;17064;47.974;13.826;2023-09-30T22:31:14;13.30;99.90
30250;DHT22;17064;47.974;13.826;2023-09-30T22:36:15;13.30;99.90
30250;DHT22;17064;47.974;13.826;2023-09-30T22:41:17;13.20;99.90
30250;DHT22;17064;47.974;13.826;2023-09-30T22:46:18;13.20;99.90
30250;DHT22;17064;47.974;13.826;2023-09-30T22:51:19;13.10;99.90
30250;DHT22;17064;47.974;13.826;2023-09-30T22:56:20;13.10;99.90
30250;DHT22;17064;47.974;13.826;2023-09-30T23:01:24;13.10;99.90
30250;DHT22;17064;47.974;13.826;2023-09-30T23:06:26;13.10;99.90
30250;DHT22;17064;47.974;13.826;2023-09-30T23:11:27;13.10;99.90
30250;DHT22;17064;47.974;13.826;2023-09-30T23:16:28;13.10;99.90
30250;DHT22;17064;47.974;13.826;2023-09-30T23:21:29;13.10;99.90
30250;DHT22;17064;47.974;13.826;2023-09-30T23:26:30;13.10;99.90
30250;DHT22;17064;47.974;13.826;2023-09-30T23:31:31;13.10;99.90
30250;DHT22;17064;47.974;13.826;2023-09-30T23:36:33;12.90;99.90
30250;DHT22;17064;47.974;13.826;2023-09-30T23:41:36;12.90;99.90
30250;DHT22;17064;47.974;13.826;2023-09-30T23:46:39;12.80;99.90
30250;DHT22;17064;47.974;13.826;2023-09-30T23:51:40;12.80;99.90
30250;DHT22;17064;47.974;13.826;2023-09-30T23:56:41;12.80;99.90
